sensor_id;sensor_type;location;lat;lon;timestamp;temperature;humidity
9033;DHT22;4551;53.164;8.210;2023-08-06T00:00:28;15.10;99.90
9033;DHT22;4551;53.164;8.210;2023-08-06T00:02:56;15.00;99.90
9033;DHT22;4551;53.164;8.210;2023-08-06T00:05:24;15.10;99.90
9033;DHT22;4551;53.164;8.210;2023-08-06T00:07:52;15.00;99.90
9033;DHT22;4551;53.164;8.210;2023-08-06T00:10:21;15.00;99.90
9033;DHT22;4551;53.164;8.210;2023-08-06T00:12:49;15.00;99.90
9033;DHT22;4551;53.164;8.210;2023-08-06T00:15:19;15.00;99.90
9033;DHT22;4551;53.164;8.210;2023-08-06T00:17:47;15.00;99.90
9033;DHT22;4551;53.164;8.210;2023-08-06T00:20:15;15.00;99.90
9033;DHT22;4551;53.164;8.210;2023-08-06T00:22:43;15.00;99.90
9033;DHT22;4551;53.164;8.210;2023-08-06T00:25:14;15.00;99.90
9033;DHT22;4551;53.164;8.210;2023-08-06T00:27:42;15.00;99.90
9033;DHT22;4551;53.164;8.210;2023-08-06T00:30:10;15.00;99.90
9033;DHT22;4551;53.164;8.210;2023-08-06T00:32:39;15.00;99.90
9033;DHT22;4551;53.164;8.210;2023-08-06T00:35:08;15.00;99.90
9033;DHT22;4551;53.164;8.210;2023-08-06T00:37:36;15.00;99.90
9033;DHT22;4551;53.164;8.210;2023-08-06T00:40:04;14.90;99.90
9033;DHT22;4551;53.164;8.210;2023-08-06T00:42:33;15.00;99.90
9033;DHT22;4551;53.164;8.210;2023-08-06T00:45:01;15.00;99.90
9033;DHT22;4551;53.164;8.210;2023-08-06T00:47:29;14.90;99.90
9033;DHT22;4551;53.164;8.210;2023-08-06T00:49:59;14.90;99.90
9033;DHT22;4551;53.164;8.210;2023-08-06T00:52:27;14.90;99.90
9033;DHT22;4551;53.164;8.210;2023-08-06T00:54:56;14.90;99.90
9033;DHT22;4551;53.164;8.210;2023-08-06T00:57:24;14.80;99.90
9033;DHT22;4551;53.164;8.210;2023-08-06T00:59:53;14.90;99.90
9033;DHT22;4551;53.164;8.210;2023-08-06T01:02:21;14.90;99.90
9033;DHT22;4551;53.164;8.210;2023-08-06T01:04:49;14.80;99.90
9033;DHT22;4551;53.164;8.210;2023-08-06T01:07:21;14.80;99.90
9033;DHT22;4551;53.164;8.210;2023-08-06T01:09:54;14.80;99.90
9033;DHT22;4551;53.164;8.210;2023-08-06T01:12:28;14.80;99.90
9033;DHT22;4551;53.164;8.210;2023-08-06T01:14:58;14.80;99.90
9033;DHT22;4551;53.164;8.210;2023-08-06T01:17:27;14.80;99.90
9033;DHT22;4551;53.164;8.210;2023-08-06T01:20:04;14.80;99.90
9033;DHT22;4551;53.164;8.210;2023-08-06T01:22:34;14.80;99.90
9033;DHT22;4551;53.164;8.210;2023-08-06T01:25:02;14.80;99.90
9033;DHT22;4551;53.164;8.210;2023-08-06T01:27:34;14.80;99.90
9033;DHT22;4551;53.164;8.210;2023-08-06T01:30:06;14.80;99.90
9033;DHT22;4551;53.164;8.210;2023-08-06T01:32:38;14.80;99.90
9033;DHT22;4551;53.164;8.210;2023-08-06T01:35:07;14.80;99.90
9033;DHT22;4551;53.164;8.210;2023-08-06T01:37:37;14.90;99.90
9033;DHT22;4551;53.164;8.210;2023-08-06T01:40:06;14.80;99.90
9033;DHT22;4551;53.164;8.210;2023-08-06T01:42:35;14.90;99.90
9033;DHT22;4551;53.164;8.210;2023-08-06T01:45:07;14.90;99.90
9033;DHT22;4551;53.164;8.210;2023-08-06T01:47:35;14.80;99.90
9033;DHT22;4551;53.164;8.210;2023-08-06T01:50:03;14.90;99.90
9033;DHT22;4551;53.164;8.210;2023-08-06T01:52:32;14.80;99.90
9033;DHT22;4551;53.164;8.210;2023-08-06T01:55:01;14.80;99.90
9033;DHT22;4551;53.164;8.210;2023-08-06T01:57:29;14.80;99.90
9033;DHT22;4551;53.164;8.210;2023-08-06T01:59:57;14.80;99.90
9033;DHT22;4551;53.164;8.210;2023-08-06T02:02:25;14.80;99.90
9033;DHT22;4551;53.164;8.210;2023-08-06T02:04:53;14.80;99.90
9033;DHT22;4551;53.164;8.210;2023-08-06T02:07:21;14.80;99.90
9033;DHT22;4551;53.164;8.210;2023-08-06T02:09:49;14.90;99.90
9033;DHT22;4551;53.164;8.210;2023-08-06T02:12:19;14.80;99.90
9033;DHT22;4551;53.164;8.210;2023-08-06T02:14:47;14.80;99.90
9033;DHT22;4551;53.164;8.210;2023-08-06T02:17:15;14.90;99.90
9033;DHT22;4551;53.164;8.210;2023-08-06T02:19:43;14.80;99.90
9033;DHT22;4551;53.164;8.210;2023-08-06T02:22:11;14.80;99.90
9033;DHT22;4551;53.164;8.210;2023-08-06T02:24:39;14.80;99.90
9033;DHT22;4551;53.164;8.210;2023-08-06T02:27:07;14.80;99.90
9033;DHT22;4551;53.164;8.210;2023-08-06T02:29:36;14.80;99.90
9033;DHT22;4551;53.164;8.210;2023-08-06T02:32:05;14.80;99.90
9033;DHT22;4551;53.164;8.210;2023-08-06T02:34:33;14.80;99.90
9033;DHT22;4551;53.164;8.210;2023-08-06T02:37:01;14.80;99.90
9033;DHT22;4551;53.164;8.210;2023-08-06T02:39:29;14.80;99.90
9033;DHT22;4551;53.164;8.210;2023-08-06T02:41:57;14.80;99.90
9033;DHT22;4551;53.164;8.210;2023-08-06T02:44:26;14.80;99.90
9033;DHT22;4551;53.164;8.210;2023-08-06T02:46:56;14.80;99.90
9033;DHT22;4551;53.164;8.210;2023-08-06T02:49:24;14.80;99.90
9033;DHT22;4551;53.164;8.210;2023-08-06T02:51:52;14.80;99.90
9033;DHT22;4551;53.164;8.210;2023-08-06T02:54:20;14.80;99.90
9033;DHT22;4551;53.164;8.210;2023-08-06T02:56:48;14.80;99.90
9033;DHT22;4551;53.164;8.210;2023-08-06T02:59:19;14.80;99.90
9033;DHT22;4551;53.164;8.210;2023-08-06T03:01:47;14.80;99.90
9033;DHT22;4551;53.164;8.210;2023-08-06T03:04:17;14.80;99.90
9033;DHT22;4551;53.164;8.210;2023-08-06T03:06:45;14.80;99.90
9033;DHT22;4551;53.164;8.210;2023-08-06T03:09:13;14.80;99.90
9033;DHT22;4551;53.164;8.210;2023-08-06T03:11:41;14.80;99.90
9033;DHT22;4551;53.164;8.210;2023-08-06T03:14:09;14.80;99.90
9033;DHT22;4551;53.164;8.210;2023-08-06T03:16:37;14.70;99.90
9033;DHT22;4551;53.164;8.210;2023-08-06T03:19:05;14.70;99.90
9033;DHT22;4551;53.164;8.210;2023-08-06T03:21:34;14.70;99.90
9033;DHT22;4551;53.164;8.210;2023-08-06T03:24:02;14.70;99.90
9033;DHT22;4551;53.164;8.210;2023-08-06T03:26:30;14.70;99.90
9033;DHT22;4551;53.164;8.210;2023-08-06T03:28:58;14.70;99.90
9033;DHT22;4551;53.164;8.210;2023-08-06T03:31:26;14.70;99.90
9033;DHT22;4551;53.164;8.210;2023-08-06T03:33:55;14.60;99.90
9033;DHT22;4551;53.164;8.210;2023-08-06T03:36:23;14.70;99.90
9033;DHT22;4551;53.164;8.210;2023-08-06T03:38:52;14.70;99.90
9033;DHT22;4551;53.164;8.210;2023-08-06T03:41:20;14.60;99.90
9033;DHT22;4551;53.164;8.210;2023-08-06T03:43:48;14.70;99.90
9033;DHT22;4551;53.164;8.210;2023-08-06T03:46:16;14.60;99.90
9033;DHT22;4551;53.164;8.210;2023-08-06T03:48:44;14.60;99.90
9033;DHT22;4551;53.164;8.210;2023-08-06T03:51:12;14.60;99.90
9033;DHT22;4551;53.164;8.210;2023-08-06T03:53:40;14.60;99.90
9033;DHT22;4551;53.164;8.210;2023-08-06T03:56:10;14.60;99.90
9033;DHT22;4551;53.164;8.210;2023-08-06T03:58:38;14.60;99.90
9033;DHT22;4551;53.164;8.210;2023-08-06T04:01:06;14.50;99.90
9033;DHT22;4551;53.164;8.210;2023-08-06T04:03:34;14.50;99.90
9033;DHT22;4551;53.164;8.210;2023-08-06T04:06:02;14.50;99.90
9033;DHT22;4551;53.164;8.210;2023-08-06T04:08:30;14.50;99.90
9033;DHT22;4551;53.164;8.210;2023-08-06T04:10:59;14.50;99.90
9033;DHT22;4551;53.164;8.210;2023-08-06T04:13:28;14.50;99.90
9033;DHT22;4551;53.164;8.210;2023-08-06T04:16:00;14.50;99.90
9033;DHT22;4551;53.164;8.210;2023-08-06T04:18:28;14.50;99.90
9033;DHT22;4551;53.164;8.210;2023-08-06T04:20:56;14.50;99.90
9033;DHT22;4551;53.164;8.210;2023-08-06T04:23:24;14.50;99.90
9033;DHT22;4551;53.164;8.210;2023-08-06T04:25:55;14.50;99.90
9033;DHT22;4551;53.164;8.210;2023-08-06T04:28:23;14.50;99.90
9033;DHT22;4551;53.164;8.210;2023-08-06T04:30:53;14.50;99.90
9033;DHT22;4551;53.164;8.210;2023-08-06T04:33:21;14.50;99.90
9033;DHT22;4551;53.164;8.210;2023-08-06T04:35:53;14.50;99.90
9033;DHT22;4551;53.164;8.210;2023-08-06T04:38:22;14.50;99.90
9033;DHT22;4551;53.164;8.210;2023-08-06T04:40:50;14.50;99.90
9033;DHT22;4551;53.164;8.210;2023-08-06T04:43:18;14.50;99.90
9033;DHT22;4551;53.164;8.210;2023-08-06T04:45:47;14.50;99.90
9033;DHT22;4551;53.164;8.210;2023-08-06T04:48:16;14.40;99.90
9033;DHT22;4551;53.164;8.210;2023-08-06T04:50:44;14.40;99.90
9033;DHT22;4551;53.164;8.210;2023-08-06T04:53:12;14.40;99.90
9033;DHT22;4551;53.164;8.210;2023-08-06T04:55:40;14.40;99.90
9033;DHT22;4551;53.164;8.210;2023-08-06T04:58:09;14.40;99.90
9033;DHT22;4551;53.164;8.210;2023-08-06T05:00:37;14.40;99.90
9033;DHT22;4551;53.164;8.210;2023-08-06T05:03:05;14.40;99.90
9033;DHT22;4551;53.164;8.210;2023-08-06T05:05:34;14.50;99.90
9033;DHT22;4551;53.164;8.210;2023-08-06T05:08:03;14.40;99.90
9033;DHT22;4551;53.164;8.210;2023-08-06T05:10:32;14.50;99.90
9033;DHT22;4551;53.164;8.210;2023-08-06T05:13:14;14.50;99.90
9033;DHT22;4551;53.164;8.210;2023-08-06T05:15:42;14.50;99.90
9033;DHT22;4551;53.164;8.210;2023-08-06T05:18:12;14.50;99.90
9033;DHT22;4551;53.164;8.210;2023-08-06T05:20:42;14.50;99.90
9033;DHT22;4551;53.164;8.210;2023-08-06T05:23:10;14.60;99.90
9033;DHT22;4551;53.164;8.210;2023-08-06T05:25:38;14.60;99.90
9033;DHT22;4551;53.164;8.210;2023-08-06T05:28:06;14.60;99.90
9033;DHT22;4551;53.164;8.210;2023-08-06T05:30:38;14.60;99.90
9033;DHT22;4551;53.164;8.210;2023-08-06T05:33:06;14.60;99.90
9033;DHT22;4551;53.164;8.210;2023-08-06T05:35:34;14.60;99.90
9033;DHT22;4551;53.164;8.210;2023-08-06T05:38:04;14.70;99.90
9033;DHT22;4551;53.164;8.210;2023-08-06T05:40:33;14.70;99.90
9033;DHT22;4551;53.164;8.210;2023-08-06T05:43:01;14.70;99.90
9033;DHT22;4551;53.164;8.210;2023-08-06T05:45:29;14.70;99.90
9033;DHT22;4551;53.164;8.210;2023-08-06T05:47:57;14.70;99.90
9033;DHT22;4551;53.164;8.210;2023-08-06T05:50:25;14.70;99.90
9033;DHT22;4551;53.164;8.210;2023-08-06T05:52:53;14.80;99.90
9033;DHT22;4551;53.164;8.210;2023-08-06T05:55:23;14.70;99.90
9033;DHT22;4551;53.164;8.210;2023-08-06T05:57:51;14.80;99.90
9033;DHT22;4551;53.164;8.210;2023-08-06T06:00:20;14.80;99.90
9033;DHT22;4551;53.164;8.210;2023-08-06T06:02:48;14.80;99.90
9033;DHT22;4551;53.164;8.210;2023-08-06T06:05:16;14.80;99.90
9033;DHT22;4551;53.164;8.210;2023-08-06T06:07:44;14.80;99.90
9033;DHT22;4551;53.164;8.210;2023-08-06T06:10:12;14.80;99.90
9033;DHT22;4551;53.164;8.210;2023-08-06T06:12:42;14.80;99.90
9033;DHT22;4551;53.164;8.210;2023-08-06T06:15:10;14.80;99.90
9033;DHT22;4551;53.164;8.210;2023-08-06T06:17:38;14.80;99.90
9033;DHT22;4551;53.164;8.210;2023-08-06T06:20:06;14.80;99.90
9033;DHT22;4551;53.164;8.210;2023-08-06T06:22:34;14.90;99.90
9033;DHT22;4551;53.164;8.210;2023-08-06T06:25:03;14.80;99.90
9033;DHT22;4551;53.164;8.210;2023-08-06T06:27:31;14.90;99.90
9033;DHT22;4551;53.164;8.210;2023-08-06T06:30:00;14.90;99.90
9033;DHT22;4551;53.164;8.210;2023-08-06T06:32:28;14.90;99.90
9033;DHT22;4551;53.164;8.210;2023-08-06T06:34:57;14.90;99.90
9033;DHT22;4551;53.164;8.210;2023-08-06T06:37:26;15.00;99.90
9033;DHT22;4551;53.164;8.210;2023-08-06T06:39:54;15.00;99.90
9033;DHT22;4551;53.164;8.210;2023-08-06T06:42:22;14.90;99.90
9033;DHT22;4551;53.164;8.210;2023-08-06T06:44:50;15.00;99.90
9033;DHT22;4551;53.164;8.210;2023-08-06T06:47:19;15.00;99.90
9033;DHT22;4551;53.164;8.210;2023-08-06T06:49:47;15.10;99.90
9033;DHT22;4551;53.164;8.210;2023-08-06T06:52:16;15.10;99.90
9033;DHT22;4551;53.164;8.210;2023-08-06T06:54:44;15.10;99.90
9033;DHT22;4551;53.164;8.210;2023-08-06T06:57:12;15.20;99.90
9033;DHT22;4551;53.164;8.210;2023-08-06T06:59:43;15.20;99.90
9033;DHT22;4551;53.164;8.210;2023-08-06T07:02:11;15.20;99.90
9033;DHT22;4551;53.164;8.210;2023-08-06T07:04:41;15.30;99.90
9033;DHT22;4551;53.164;8.210;2023-08-06T07:07:09;15.30;99.90
9033;DHT22;4551;53.164;8.210;2023-08-06T07:09:37;15.30;99.90
9033;DHT22;4551;53.164;8.210;2023-08-06T07:12:05;15.40;99.90
9033;DHT22;4551;53.164;8.210;2023-08-06T07:14:33;15.40;99.90
9033;DHT22;4551;53.164;8.210;2023-08-06T07:17:02;15.50;99.90
9033;DHT22;4551;53.164;8.210;2023-08-06T07:19:30;15.50;99.90
9033;DHT22;4551;53.164;8.210;2023-08-06T07:21:59;15.50;99.90
9033;DHT22;4551;53.164;8.210;2023-08-06T07:24:27;15.50;99.90
9033;DHT22;4551;53.164;8.210;2023-08-06T07:26:55;15.60;99.90
9033;DHT22;4551;53.164;8.210;2023-08-06T07:29:23;15.60;99.90
9033;DHT22;4551;53.164;8.210;2023-08-06T07:31:51;15.60;99.90
9033;DHT22;4551;53.164;8.210;2023-08-06T07:34:20;15.70;99.90
9033;DHT22;4551;53.164;8.210;2023-08-06T07:36:48;15.70;99.90
9033;DHT22;4551;53.164;8.210;2023-08-06T07:39:17;15.70;99.90
9033;DHT22;4551;53.164;8.210;2023-08-06T07:41:46;15.70;99.90
9033;DHT22;4551;53.164;8.210;2023-08-06T07:44:14;15.80;99.90
9033;DHT22;4551;53.164;8.210;2023-08-06T07:46:42;15.90;99.90
9033;DHT22;4551;53.164;8.210;2023-08-06T07:49:13;15.90;99.90
9033;DHT22;4551;53.164;8.210;2023-08-06T07:51:41;16.00;99.90
9033;DHT22;4551;53.164;8.210;2023-08-06T07:54:09;16.10;99.90
9033;DHT22;4551;53.164;8.210;2023-08-06T07:56:39;16.10;99.90
9033;DHT22;4551;53.164;8.210;2023-08-06T07:59:08;16.10;99.90
9033;DHT22;4551;53.164;8.210;2023-08-06T08:01:36;16.10;99.90
9033;DHT22;4551;53.164;8.210;2023-08-06T08:04:04;16.20;99.90
9033;DHT22;4551;53.164;8.210;2023-08-06T08:06:33;16.20;99.90
9033;DHT22;4551;53.164;8.210;2023-08-06T08:09:01;16.30;99.90
9033;DHT22;4551;53.164;8.210;2023-08-06T08:11:29;16.30;99.90
9033;DHT22;4551;53.164;8.210;2023-08-06T08:13:59;16.30;99.90
9033;DHT22;4551;53.164;8.210;2023-08-06T08:16:27;16.30;99.90
9033;DHT22;4551;53.164;8.210;2023-08-06T08:18:55;16.40;99.90
9033;DHT22;4551;53.164;8.210;2023-08-06T08:21:23;16.40;99.90
9033;DHT22;4551;53.164;8.210;2023-08-06T08:23:52;16.40;99.90
9033;DHT22;4551;53.164;8.210;2023-08-06T08:26:20;16.50;99.90
9033;DHT22;4551;53.164;8.210;2023-08-06T08:28:48;16.50;99.90
9033;DHT22;4551;53.164;8.210;2023-08-06T08:31:20;16.60;99.90
9033;DHT22;4551;53.164;8.210;2023-08-06T08:33:48;16.60;99.90
9033;DHT22;4551;53.164;8.210;2023-08-06T08:36:20;16.70;99.90
9033;DHT22;4551;53.164;8.210;2023-08-06T08:38:48;16.70;99.90
9033;DHT22;4551;53.164;8.210;2023-08-06T08:41:20;16.70;99.90
9033;DHT22;4551;53.164;8.210;2023-08-06T08:43:48;16.70;99.90
9033;DHT22;4551;53.164;8.210;2023-08-06T08:46:18;16.70;99.90
9033;DHT22;4551;53.164;8.210;2023-08-06T08:48:47;16.70;99.90
9033;DHT22;4551;53.164;8.210;2023-08-06T08:51:15;16.80;99.90
9033;DHT22;4551;53.164;8.210;2023-08-06T08:53:44;16.80;99.90
9033;DHT22;4551;53.164;8.210;2023-08-06T08:56:13;16.90;99.90
9033;DHT22;4551;53.164;8.210;2023-08-06T08:58:41;16.90;99.90
9033;DHT22;4551;53.164;8.210;2023-08-06T09:01:09;16.90;99.90
9033;DHT22;4551;53.164;8.210;2023-08-06T09:03:37;17.00;99.90
9033;DHT22;4551;53.164;8.210;2023-08-06T09:06:08;17.00;99.90
9033;DHT22;4551;53.164;8.210;2023-08-06T09:08:39;17.10;99.90
9033;DHT22;4551;53.164;8.210;2023-08-06T09:11:07;17.10;99.90
9033;DHT22;4551;53.164;8.210;2023-08-06T09:13:37;17.10;99.90
9033;DHT22;4551;53.164;8.210;2023-08-06T09:16:05;17.10;99.90
9033;DHT22;4551;53.164;8.210;2023-08-06T09:18:33;17.20;99.90
9033;DHT22;4551;53.164;8.210;2023-08-06T09:21:01;17.20;99.90
9033;DHT22;4551;53.164;8.210;2023-08-06T09:23:31;17.10;99.90
9033;DHT22;4551;53.164;8.210;2023-08-06T09:26:00;17.10;99.90
9033;DHT22;4551;53.164;8.210;2023-08-06T09:28:36;17.20;99.90
9033;DHT22;4551;53.164;8.210;2023-08-06T09:31:05;17.20;99.90
9033;DHT22;4551;53.164;8.210;2023-08-06T09:33:33;17.30;99.90
9033;DHT22;4551;53.164;8.210;2023-08-06T09:36:06;17.30;99.90
9033;DHT22;4551;53.164;8.210;2023-08-06T09:38:38;17.30;99.90
9033;DHT22;4551;53.164;8.210;2023-08-06T09:41:07;17.30;99.90
9033;DHT22;4551;53.164;8.210;2023-08-06T09:43:42;17.40;99.90
9033;DHT22;4551;53.164;8.210;2023-08-06T09:46:13;17.40;99.90
9033;DHT22;4551;53.164;8.210;2023-08-06T09:48:46;17.50;99.90
9033;DHT22;4551;53.164;8.210;2023-08-06T09:51:14;17.50;99.90
9033;DHT22;4551;53.164;8.210;2023-08-06T09:53:44;17.70;99.90
9033;DHT22;4551;53.164;8.210;2023-08-06T09:56:13;17.80;99.90
9033;DHT22;4551;53.164;8.210;2023-08-06T09:58:41;17.80;99.90
9033;DHT22;4551;53.164;8.210;2023-08-06T10:01:09;17.80;99.90
9033;DHT22;4551;53.164;8.210;2023-08-06T10:03:39;17.80;99.90
9033;DHT22;4551;53.164;8.210;2023-08-06T10:06:07;17.80;99.90
9033;DHT22;4551;53.164;8.210;2023-08-06T10:08:36;17.80;99.90
9033;DHT22;4551;53.164;8.210;2023-08-06T10:11:06;17.80;99.90
9033;DHT22;4551;53.164;8.210;2023-08-06T10:13:34;17.80;99.90
9033;DHT22;4551;53.164;8.210;2023-08-06T10:16:02;17.80;99.90
9033;DHT22;4551;53.164;8.210;2023-08-06T10:18:33;17.90;99.90
9033;DHT22;4551;53.164;8.210;2023-08-06T10:21:01;18.00;99.90
9033;DHT22;4551;53.164;8.210;2023-08-06T10:23:35;18.00;99.90
9033;DHT22;4551;53.164;8.210;2023-08-06T10:26:06;18.00;99.90
9033;DHT22;4551;53.164;8.210;2023-08-06T10:28:35;18.10;99.90
9033;DHT22;4551;53.164;8.210;2023-08-06T10:31:04;18.10;99.90
9033;DHT22;4551;53.164;8.210;2023-08-06T10:33:40;18.20;99.90
9033;DHT22;4551;53.164;8.210;2023-08-06T10:36:08;18.30;99.90
9033;DHT22;4551;53.164;8.210;2023-08-06T10:38:43;18.30;99.90
9033;DHT22;4551;53.164;8.210;2023-08-06T10:41:16;18.40;99.90
9033;DHT22;4551;53.164;8.210;2023-08-06T10:43:44;18.40;99.90
9033;DHT22;4551;53.164;8.210;2023-08-06T10:46:21;18.40;99.90
9033;DHT22;4551;53.164;8.210;2023-08-06T10:48:53;18.50;99.90
9033;DHT22;4551;53.164;8.210;2023-08-06T10:51:21;18.60;99.90
9033;DHT22;4551;53.164;8.210;2023-08-06T10:53:49;18.70;99.90
9033;DHT22;4551;53.164;8.210;2023-08-06T10:56:19;18.80;99.90
9033;DHT22;4551;53.164;8.210;2023-08-06T10:58:49;18.90;99.90
9033;DHT22;4551;53.164;8.210;2023-08-06T11:01:19;19.00;99.90
9033;DHT22;4551;53.164;8.210;2023-08-06T11:03:47;19.10;99.90
9033;DHT22;4551;53.164;8.210;2023-08-06T11:06:17;19.00;99.90
9033;DHT22;4551;53.164;8.210;2023-08-06T11:08:49;19.10;99.90
9033;DHT22;4551;53.164;8.210;2023-08-06T11:11:19;19.10;99.90
9033;DHT22;4551;53.164;8.210;2023-08-06T11:13:49;19.20;99.90
9033;DHT22;4551;53.164;8.210;2023-08-06T11:16:18;19.30;99.90
9033;DHT22;4551;53.164;8.210;2023-08-06T11:18:46;19.30;99.90
9033;DHT22;4551;53.164;8.210;2023-08-06T11:21:14;19.40;99.90
9033;DHT22;4551;53.164;8.210;2023-08-06T11:23:45;19.40;99.90
9033;DHT22;4551;53.164;8.210;2023-08-06T11:26:19;19.50;99.90
9033;DHT22;4551;53.164;8.210;2023-08-06T11:28:48;19.60;99.90
9033;DHT22;4551;53.164;8.210;2023-08-06T11:31:20;19.70;99.90
9033;DHT22;4551;53.164;8.210;2023-08-06T11:33:48;19.80;99.90
9033;DHT22;4551;53.164;8.210;2023-08-06T11:36:27;19.90;99.90
9033;DHT22;4551;53.164;8.210;2023-08-06T11:38:56;20.00;99.90
9033;DHT22;4551;53.164;8.210;2023-08-06T11:41:25;20.00;99.90
9033;DHT22;4551;53.164;8.210;2023-08-06T11:43:55;20.00;99.90
9033;DHT22;4551;53.164;8.210;2023-08-06T11:46:23;20.10;99.90
9033;DHT22;4551;53.164;8.210;2023-08-06T11:48:52;20.20;99.90
9033;DHT22;4551;53.164;8.210;2023-08-06T11:51:22;20.20;99.90
9033;DHT22;4551;53.164;8.210;2023-08-06T11:53:50;20.20;99.90
9033;DHT22;4551;53.164;8.210;2023-08-06T11:56:19;20.30;99.90
9033;DHT22;4551;53.164;8.210;2023-08-06T11:58:49;20.30;99.90
9033;DHT22;4551;53.164;8.210;2023-08-06T12:01:17;20.40;99.90
9033;DHT22;4551;53.164;8.210;2023-08-06T12:03:45;20.50;99.90
9033;DHT22;4551;53.164;8.210;2023-08-06T12:06:13;20.50;99.90
9033;DHT22;4551;53.164;8.210;2023-08-06T12:08:41;20.50;99.90
9033;DHT22;4551;53.164;8.210;2023-08-06T12:11:10;20.50;99.90
9033;DHT22;4551;53.164;8.210;2023-08-06T12:13:38;20.50;99.90
9033;DHT22;4551;53.164;8.210;2023-08-06T12:16:07;20.60;99.90
9033;DHT22;4551;53.164;8.210;2023-08-06T12:18:35;20.70;99.90
9033;DHT22;4551;53.164;8.210;2023-08-06T12:21:03;20.70;99.90
9033;DHT22;4551;53.164;8.210;2023-08-06T12:23:32;20.70;99.90
9033;DHT22;4551;53.164;8.210;2023-08-06T12:26:00;20.60;99.90
9033;DHT22;4551;53.164;8.210;2023-08-06T12:28:28;20.50;99.90
9033;DHT22;4551;53.164;8.210;2023-08-06T12:30:56;20.60;99.90
9033;DHT22;4551;53.164;8.210;2023-08-06T12:33:25;20.70;99.90
9033;DHT22;4551;53.164;8.210;2023-08-06T12:35:53;20.80;99.90
9033;DHT22;4551;53.164;8.210;2023-08-06T12:38:22;20.80;99.90
9033;DHT22;4551;53.164;8.210;2023-08-06T12:40:50;20.90;99.90
9033;DHT22;4551;53.164;8.210;2023-08-06T12:43:18;20.90;99.90
9033;DHT22;4551;53.164;8.210;2023-08-06T12:45:46;21.00;99.90
9033;DHT22;4551;53.164;8.210;2023-08-06T12:48:15;21.20;99.90
9033;DHT22;4551;53.164;8.210;2023-08-06T12:50:45;21.30;99.90
9033;DHT22;4551;53.164;8.210;2023-08-06T12:53:13;21.20;99.90
9033;DHT22;4551;53.164;8.210;2023-08-06T12:55:41;21.20;99.90
9033;DHT22;4551;53.164;8.210;2023-08-06T12:58:10;21.30;99.90
9033;DHT22;4551;53.164;8.210;2023-08-06T13:00:38;21.30;99.90
9033;DHT22;4551;53.164;8.210;2023-08-06T13:03:06;21.40;99.90
9033;DHT22;4551;53.164;8.210;2023-08-06T13:05:34;21.50;99.90
9033;DHT22;4551;53.164;8.210;2023-08-06T13:08:04;21.50;99.90
9033;DHT22;4551;53.164;8.210;2023-08-06T13:10:32;21.60;99.90
9033;DHT22;4551;53.164;8.210;2023-08-06T13:13:00;21.70;99.90
9033;DHT22;4551;53.164;8.210;2023-08-06T13:15:28;21.60;99.90
9033;DHT22;4551;53.164;8.210;2023-08-06T13:17:56;21.70;99.90
9033;DHT22;4551;53.164;8.210;2023-08-06T13:20:24;21.70;99.90
9033;DHT22;4551;53.164;8.210;2023-08-06T13:22:52;21.80;99.90
9033;DHT22;4551;53.164;8.210;2023-08-06T13:25:22;21.90;99.90
9033;DHT22;4551;53.164;8.210;2023-08-06T13:27:50;22.10;99.90
9033;DHT22;4551;53.164;8.210;2023-08-06T13:30:18;22.20;99.90
9033;DHT22;4551;53.164;8.210;2023-08-06T13:32:46;22.40;99.90
9033;DHT22;4551;53.164;8.210;2023-08-06T13:35:14;22.50;99.90
9033;DHT22;4551;53.164;8.210;2023-08-06T13:37:42;22.50;99.90
9033;DHT22;4551;53.164;8.210;2023-08-06T13:40:11;22.40;99.90
9033;DHT22;4551;53.164;8.210;2023-08-06T13:42:40;22.40;99.90
9033;DHT22;4551;53.164;8.210;2023-08-06T13:45:08;22.60;99.90
9033;DHT22;4551;53.164;8.210;2023-08-06T13:47:37;22.80;99.90
9033;DHT22;4551;53.164;8.210;2023-08-06T13:50:05;22.90;99.90
9033;DHT22;4551;53.164;8.210;2023-08-06T13:52:33;23.10;99.90
9033;DHT22;4551;53.164;8.210;2023-08-06T13:55:02;23.20;99.90
9033;DHT22;4551;53.164;8.210;2023-08-06T13:57:31;23.40;99.90
9033;DHT22;4551;53.164;8.210;2023-08-06T14:00:00;23.50;99.90
9033;DHT22;4551;53.164;8.210;2023-08-06T14:02:29;23.60;99.90
9033;DHT22;4551;53.164;8.210;2023-08-06T14:04:57;23.60;99.90
9033;DHT22;4551;53.164;8.210;2023-08-06T14:07:25;23.50;99.90
9033;DHT22;4551;53.164;8.210;2023-08-06T14:09:53;23.30;99.90
9033;DHT22;4551;53.164;8.210;2023-08-06T14:12:23;23.00;99.90
9033;DHT22;4551;53.164;8.210;2023-08-06T14:14:52;22.90;99.90
9033;DHT22;4551;53.164;8.210;2023-08-06T14:17:21;23.10;99.90
9033;DHT22;4551;53.164;8.210;2023-08-06T14:19:49;23.40;99.90
9033;DHT22;4551;53.164;8.210;2023-08-06T14:22:18;23.50;99.90
9033;DHT22;4551;53.164;8.210;2023-08-06T14:24:46;23.50;99.90
9033;DHT22;4551;53.164;8.210;2023-08-06T14:27:14;23.40;99.90
9033;DHT22;4551;53.164;8.210;2023-08-06T14:29:42;23.40;99.90
9033;DHT22;4551;53.164;8.210;2023-08-06T14:32:11;23.20;99.90
9033;DHT22;4551;53.164;8.210;2023-08-06T14:34:40;23.10;99.90
9033;DHT22;4551;53.164;8.210;2023-08-06T14:37:08;23.00;99.90
9033;DHT22;4551;53.164;8.210;2023-08-06T14:39:36;23.20;99.90
9033;DHT22;4551;53.164;8.210;2023-08-06T14:42:04;23.50;99.90
9033;DHT22;4551;53.164;8.210;2023-08-06T14:44:32;23.90;99.90
9033;DHT22;4551;53.164;8.210;2023-08-06T14:47:00;24.30;99.90
9033;DHT22;4551;53.164;8.210;2023-08-06T14:49:28;24.60;99.90
9033;DHT22;4551;53.164;8.210;2023-08-06T14:51:58;24.50;99.90
9033;DHT22;4551;53.164;8.210;2023-08-06T14:54:28;24.30;99.90
9033;DHT22;4551;53.164;8.210;2023-08-06T14:56:56;24.30;99.90
9033;DHT22;4551;53.164;8.210;2023-08-06T14:59:24;24.30;99.90
9033;DHT22;4551;53.164;8.210;2023-08-06T15:01:52;24.40;99.90
9033;DHT22;4551;53.164;8.210;2023-08-06T15:04:21;24.70;99.90
9033;DHT22;4551;53.164;8.210;2023-08-06T15:06:51;25.00;99.90
9033;DHT22;4551;53.164;8.210;2023-08-06T15:09:20;25.20;99.90
9033;DHT22;4551;53.164;8.210;2023-08-06T15:11:49;25.10;99.90
9033;DHT22;4551;53.164;8.210;2023-08-06T15:14:17;24.80;99.90
9033;DHT22;4551;53.164;8.210;2023-08-06T15:16:46;24.50;99.90
9033;DHT22;4551;53.164;8.210;2023-08-06T15:19:14;24.30;99.90
9033;DHT22;4551;53.164;8.210;2023-08-06T15:21:42;24.10;99.90
9033;DHT22;4551;53.164;8.210;2023-08-06T15:24:11;24.40;99.90
9033;DHT22;4551;53.164;8.210;2023-08-06T15:26:41;24.80;99.90
9033;DHT22;4551;53.164;8.210;2023-08-06T15:29:09;24.90;99.90
9033;DHT22;4551;53.164;8.210;2023-08-06T15:31:38;24.90;99.90
9033;DHT22;4551;53.164;8.210;2023-08-06T15:34:06;24.90;99.90
9033;DHT22;4551;53.164;8.210;2023-08-06T15:36:34;24.80;99.90
9033;DHT22;4551;53.164;8.210;2023-08-06T15:39:02;24.60;99.90
9033;DHT22;4551;53.164;8.210;2023-08-06T15:41:31;24.60;99.90
9033;DHT22;4551;53.164;8.210;2023-08-06T15:44:00;24.10;99.90
9033;DHT22;4551;53.164;8.210;2023-08-06T15:46:29;23.90;99.90
9033;DHT22;4551;53.164;8.210;2023-08-06T15:48:57;23.60;99.90
9033;DHT22;4551;53.164;8.210;2023-08-06T15:51:25;23.90;99.90
9033;DHT22;4551;53.164;8.210;2023-08-06T15:53:53;24.10;99.90
9033;DHT22;4551;53.164;8.210;2023-08-06T15:56:21;24.10;99.90
9033;DHT22;4551;53.164;8.210;2023-08-06T15:58:49;24.30;99.90
9033;DHT22;4551;53.164;8.210;2023-08-06T16:01:18;24.40;99.90
9033;DHT22;4551;53.164;8.210;2023-08-06T16:03:46;24.40;99.90
9033;DHT22;4551;53.164;8.210;2023-08-06T16:06:14;24.40;99.90
9033;DHT22;4551;53.164;8.210;2023-08-06T16:08:43;24.30;99.90
9033;DHT22;4551;53.164;8.210;2023-08-06T16:11:11;24.50;99.90